createdAt,value
2019-05-20T00:01:13.646Z,70.57
2019-05-20T00:03:41.782Z,70.38
2019-05-20T00:06:10.152Z,71.61
2019-05-20T00:08:38.699Z,71.81
2019-05-20T00:11:07.354Z,72.33
2019-05-20T00:13:35.894Z,72.38
2019-05-20T00:16:04.136Z,72.31
2019-05-20T00:18:32.608Z,72.23
2019-05-20T00:21:00.736Z,71.96
2019-05-20T00:23:29.169Z,72.08
2019-05-20T00:25:57.909Z,72.24
2019-05-20T00:28:26.165Z,72.17
2019-05-20T00:30:54.602Z,71.91
2019-05-20T00:33:22.739Z,71.92
2019-05-20T00:35:51.110Z,73.61
2019-05-20T00:38:19.280Z,73.39
2019-05-20T00:40:47.530Z,73.96
2019-05-20T00:43:15.692Z,73.74
2019-05-20T00:45:43.868Z,73.98
2019-05-20T00:48:12.046Z,73.69
2019-05-20T00:50:40.692Z,74.21
2019-05-20T00:53:08.868Z,74.13
2019-05-20T00:55:39.005Z,74.39
2019-05-20T00:58:07.159Z,75.07
2019-05-20T01:00:35.720Z,75.75
2019-05-20T01:03:04.086Z,76.22
2019-05-20T01:05:32.917Z,75.16
2019-05-20T01:08:01.042Z,75.71
2019-05-20T01:10:29.342Z,75.75
2019-05-20T01:12:57.469Z,75.16
2019-05-20T01:15:25.813Z,75.19
2019-05-20T01:17:54.046Z,76.24
2019-05-20T01:20:22.578Z,75.98
2019-05-20T01:22:50.792Z,76.41
2019-05-20T01:25:20.430Z,76.35
2019-05-20T01:27:48.674Z,76.62
2019-05-20T01:30:19.185Z,77.63
2019-05-20T01:32:47.347Z,77.95
2019-05-20T01:35:15.566Z,78.40
2019-05-20T01:37:43.862Z,78.82
2019-05-20T01:40:13.281Z,79.04
2019-05-20T01:42:41.864Z,79.45
2019-05-20T01:45:11.105Z,79.90
2019-05-20T01:47:39.322Z,80.30
2019-05-20T01:50:09.191Z,80.79
2019-05-20T01:52:37.463Z,80.25
2019-05-20T01:55:06.284Z,80.64
2019-05-20T01:57:34.455Z,80.55
2019-05-20T02:00:04.152Z,80.46
2019-05-20T02:02:32.321Z,80.60
2019-05-20T02:05:00.820Z,80.89
2019-05-20T02:07:28.992Z,81.11
2019-05-20T02:09:57.101Z,81.26
2019-05-20T02:12:25.362Z,81.37
2019-05-20T02:15:06.074Z,81.65
2019-05-20T02:17:34.443Z,82.07
2019-05-20T02:20:03.449Z,82.45
2019-05-20T02:22:31.754Z,82.75
2019-05-20T02:25:00.642Z,82.77
2019-05-20T02:27:28.877Z,82.88
2019-05-20T02:29:57.068Z,82.88
2019-05-20T02:32:25.226Z,82.85
2019-05-20T02:34:53.947Z,83.09
2019-05-20T02:37:22.799Z,83.27
2019-05-20T02:39:50.946Z,82.98
2019-05-20T02:42:19.235Z,82.69
2019-05-20T02:44:47.853Z,82.74
2019-05-20T02:47:16.437Z,82.21
2019-05-20T02:49:44.822Z,81.63
2019-05-20T02:52:13.022Z,81.94
2019-05-20T02:54:41.581Z,82.20
2019-05-20T02:57:09.719Z,82.65
2019-05-20T02:59:37.855Z,82.59
2019-05-20T03:02:06.100Z,82.29
2019-05-20T03:04:34.312Z,82.29
2019-05-20T03:07:02.550Z,82.50
2019-05-20T03:09:31.548Z,81.25
2019-05-20T03:11:59.748Z,79.58
2019-05-20T03:14:28.224Z,78.25
2019-05-20T03:16:56.479Z,77.79
2019-05-20T03:19:24.905Z,77.91
2019-05-20T03:21:53.443Z,78.26
2019-05-20T03:24:22.808Z,78.48
2019-05-20T03:26:51.175Z,78.34
2019-05-20T03:29:20.218Z,79.18
2019-05-20T03:31:48.672Z,79.32
2019-05-20T03:34:43.160Z,79.57
2019-05-20T03:36:48.167Z,80.09
2019-05-20T03:39:16.819Z,80.78
2019-05-20T03:41:44.966Z,80.89
2019-05-20T03:44:13.214Z,81.14
2019-05-20T03:46:41.437Z,80.70
2019-05-20T03:49:10.095Z,81.09
2019-05-20T03:51:38.924Z,80.95
2019-05-20T03:54:07.408Z,81.17
2019-05-20T03:56:35.953Z,81.37
2019-05-20T03:59:04.676Z,81.63
2019-05-20T04:01:33.119Z,81.52
2019-05-20T04:04:02.619Z,81.97
2019-05-20T04:06:30.874Z,80.99
2019-05-20T04:08:59.551Z,79.67
2019-05-20T04:11:27.816Z,79.47
2019-05-20T04:13:56.285Z,79.71
2019-05-20T04:16:24.485Z,80.50
2019-05-20T04:18:54.171Z,79.44
2019-05-20T04:21:23.114Z,78.78
2019-05-20T04:23:51.362Z,79.05
2019-05-20T04:26:20.198Z,79.29
2019-05-20T04:28:48.905Z,79.50
2019-05-20T04:31:17.183Z,79.29
2019-05-20T04:33:45.505Z,79.85
2019-05-20T04:36:13.784Z,80.29
2019-05-20T04:38:41.977Z,80.67
2019-05-20T04:41:10.670Z,80.60
2019-05-20T04:43:38.817Z,80.86
2019-05-20T04:46:07.042Z,80.46
2019-05-20T04:48:35.212Z,80.78
2019-05-20T04:51:03.698Z,81.10
2019-05-20T04:53:31.853Z,81.40
2019-05-20T04:56:00.668Z,81.43
2019-05-20T04:58:28.896Z,81.37
2019-05-20T05:00:58.499Z,81.57
2019-05-20T05:03:27.153Z,81.39
2019-05-20T05:05:55.519Z,81.35
2019-05-20T05:08:24.385Z,81.77
2019-05-20T05:10:52.908Z,81.63
2019-05-20T05:13:23.162Z,81.60
2019-05-20T05:15:51.398Z,81.17
2019-05-20T05:18:20.183Z,80.69
2019-05-20T05:20:48.432Z,80.01
2019-05-20T05:23:16.828Z,79.81
2019-05-20T05:25:45.724Z,79.83
2019-05-20T05:28:14.313Z,80.06
2019-05-20T05:30:45.056Z,79.55
2019-05-20T05:33:13.321Z,79.24
2019-05-20T05:35:52.769Z,78.70
2019-05-20T05:38:12.168Z,78.51
2019-05-20T05:40:40.351Z,78.65
2019-05-20T05:43:08.982Z,78.84
2019-05-20T05:45:37.749Z,78.81
2019-05-20T05:48:06.578Z,79.02
2019-05-20T05:50:34.767Z,79.10
2019-05-20T05:53:03.854Z,79.23
2019-05-20T05:55:32.334Z,78.68
2019-05-20T05:58:00.506Z,78.47
2019-05-20T06:00:29.024Z,78.30
2019-05-20T06:02:57.169Z,77.61
2019-05-20T06:05:25.716Z,77.02
2019-05-20T06:07:53.930Z,76.28
2019-05-20T06:10:22.277Z,76.36
2019-05-20T06:12:51.226Z,76.30
2019-05-20T06:15:38.013Z,75.69
2019-05-20T06:18:06.427Z,75.84
2019-05-20T06:20:35.218Z,76.39
2019-05-20T06:23:03.455Z,76.34
2019-05-20T06:25:31.843Z,74.82
2019-05-20T06:28:00.210Z,74.27
2019-05-20T06:30:42.044Z,74.85
2019-05-20T06:33:10.740Z,73.92
2019-05-20T06:35:39.324Z,73.91
2019-05-20T06:38:12.013Z,73.88
2019-05-20T06:40:40.220Z,73.29
2019-05-20T06:43:08.483Z,73.71
2019-05-20T06:45:36.808Z,73.71
2019-05-20T06:48:05.228Z,72.33
2019-05-20T06:50:33.524Z,72.45
2019-05-20T06:53:01.878Z,73.04
2019-05-20T06:55:30.203Z,74.04
2019-05-20T06:57:58.564Z,73.95
2019-05-20T07:00:36.722Z,74.16
2019-05-20T07:03:06.487Z,74.46
2019-05-20T07:05:34.674Z,74.16
2019-05-20T07:08:02.888Z,73.59
2019-05-20T07:10:31.110Z,73.50
2019-05-20T07:13:00.214Z,73.57
2019-05-20T07:15:28.356Z,73.58
2019-05-20T07:17:57.184Z,74.11
2019-05-20T07:20:25.537Z,73.65
2019-05-20T07:22:56.244Z,74.03
2019-05-20T07:25:24.079Z,73.60
2019-05-20T07:27:52.293Z,73.58
2019-05-20T07:30:20.992Z,73.35
2019-05-20T07:32:49.419Z,72.70
2019-05-20T07:35:29.808Z,71.57
2019-05-20T07:37:48.631Z,71.94
2019-05-20T07:40:29.835Z,71.16
2019-05-20T07:42:59.141Z,70.35
2019-05-20T07:45:32.117Z,71.29
2019-05-20T07:48:01.236Z,71.46
2019-05-20T07:50:29.885Z,71.56
2019-05-20T07:53:00.548Z,71.29
2019-05-20T07:55:40.989Z,69.91
2019-05-20T07:58:11.648Z,68.90
2019-05-20T08:00:40.539Z,68.29
2019-05-20T08:03:09.084Z,67.44
2019-05-20T08:05:37.243Z,66.48
2019-05-20T08:08:05.956Z,66.83
2019-05-20T08:10:34.207Z,66.72
2019-05-20T08:13:02.689Z,66.20
2019-05-20T08:15:30.924Z,66.45
2019-05-20T08:17:59.665Z,67.00
2019-05-20T08:20:28.012Z,67.38
2019-05-20T08:22:56.257Z,67.08
2019-05-20T08:25:24.763Z,64.58
2019-05-20T08:27:53.411Z,64.10
2019-05-20T08:30:32.644Z,61.53
2019-05-20T08:33:01.563Z,58.28
2019-05-20T08:35:29.820Z,58.85
2019-05-20T08:37:58.191Z,57.15
2019-05-20T08:40:26.440Z,57.30
2019-05-20T08:42:54.697Z,56.12
2019-05-20T08:45:22.885Z,57.27
2019-05-20T08:47:51.123Z,57.12
2019-05-20T08:50:19.740Z,57.12
2019-05-20T08:52:47.917Z,59.40
2019-05-20T08:55:16.820Z,59.17
2019-05-20T08:57:44.976Z,59.18
2019-05-20T09:00:23.289Z,58.73
2019-05-20T09:02:51.417Z,57.01
2019-05-20T09:05:19.642Z,58.89
2019-05-20T09:08:02.459Z,58.28
2019-05-20T09:10:20.423Z,57.26
2019-05-20T09:12:49.152Z,58.26
2019-05-20T09:15:22.164Z,56.50
2019-05-20T09:17:50.533Z,56.65
2019-05-20T09:20:19.440Z,53.50
2019-05-20T09:26:19.571Z,52.09
2019-05-20T09:28:48.066Z,51.58
2019-05-20T09:31:16.608Z,51.40
2019-05-20T09:33:45.820Z,51.57
2019-05-20T09:36:14.170Z,50.38
2019-05-20T09:38:42.353Z,50.14
2019-05-20T09:41:10.739Z,51.87
2019-05-20T09:43:39.050Z,52.88
2019-05-20T09:46:08.639Z,52.22
2019-05-20T09:48:37.314Z,51.81
2019-05-20T09:51:05.499Z,51.50
2019-05-20T09:53:33.839Z,52.15
2019-05-20T09:56:02.789Z,51.35
2019-05-20T09:58:33.310Z,52.47
2019-05-20T10:01:02.465Z,51.92
2019-05-20T10:03:31.086Z,51.79
2019-05-20T10:06:01.255Z,51.65
2019-05-20T10:08:38.914Z,50.76
2019-05-20T10:11:00.557Z,49.87
2019-05-20T10:13:29.924Z,50.16
2019-05-20T10:15:58.544Z,50.00
2019-05-20T10:18:36.587Z,50.21
2019-05-20T10:20:57.102Z,50.27
2019-05-20T10:23:26.067Z,51.95
2019-05-20T10:25:54.314Z,52.29
2019-05-20T10:28:22.455Z,52.41
2019-05-20T10:30:51.415Z,52.51
2019-05-20T10:33:19.537Z,52.47
2019-05-20T10:35:48.332Z,52.49
2019-05-20T10:38:16.472Z,51.98
2019-05-20T10:40:44.874Z,51.75
2019-05-20T10:43:13.101Z,51.83
2019-05-20T10:45:41.845Z,50.55
2019-05-20T10:48:10.005Z,50.37
2019-05-20T10:50:38.557Z,50.10
2019-05-20T10:53:06.711Z,51.26
2019-05-20T10:55:35.378Z,50.65
2019-05-20T10:58:03.626Z,49.61
2019-05-20T11:00:31.810Z,49.08
2019-05-20T11:03:00.261Z,49.42
2019-05-20T11:05:28.625Z,49.40
2019-05-20T11:07:57.993Z,49.64
2019-05-20T11:10:26.489Z,49.89
2019-05-20T11:12:54.698Z,49.27
2019-05-20T11:15:23.265Z,49.24
2019-05-20T11:17:51.394Z,48.46
2019-05-20T11:20:19.722Z,48.02
2019-05-20T11:22:47.869Z,47.35
2019-05-20T11:25:16.489Z,48.87
2019-05-20T11:27:44.659Z,48.18
2019-05-20T11:30:13.951Z,47.23
2019-05-20T11:32:42.599Z,48.18
2019-05-20T11:35:11.582Z,48.38
2019-05-20T11:37:40.352Z,48.26
2019-05-20T11:40:10.185Z,48.43
2019-05-20T11:42:38.920Z,47.83
2019-05-20T11:45:09.969Z,47.19
2019-05-20T11:47:38.122Z,48.09
2019-05-20T11:50:06.714Z,47.95
2019-05-20T11:52:35.199Z,47.21
2019-05-20T11:55:03.771Z,47.44
2019-05-20T11:57:32.000Z,47.28
2019-05-20T12:00:00.267Z,47.69
2019-05-20T12:02:28.694Z,46.44
2019-05-20T12:04:56.869Z,45.61
2019-05-20T12:07:25.197Z,45.63
2019-05-20T12:09:53.470Z,45.25
2019-05-20T12:12:22.050Z,43.96
2019-05-20T12:14:50.484Z,46.25
2019-05-20T12:17:18.607Z,45.81
2019-05-20T12:19:46.887Z,45.30
2019-05-20T12:22:15.157Z,45.46
2019-05-20T12:24:43.328Z,45.78
2019-05-20T12:27:11.544Z,46.14
2019-05-20T12:29:40.498Z,45.74
2019-05-20T12:32:08.972Z,45.95
2019-05-20T12:34:37.345Z,46.21
2019-05-20T12:37:05.519Z,46.12
2019-05-20T12:39:34.149Z,45.59
2019-05-20T12:42:02.583Z,46.02
2019-05-20T12:44:30.861Z,45.55
2019-05-20T12:46:59.055Z,45.89
2019-05-20T12:49:27.505Z,45.18
2019-05-20T12:51:56.019Z,45.46
2019-05-20T12:54:24.210Z,44.81
2019-05-20T12:56:52.443Z,45.03
2019-05-20T12:59:20.887Z,44.11
2019-05-20T13:01:49.141Z,44.36
2019-05-20T13:04:17.364Z,43.93
2019-05-20T13:06:45.543Z,44.45
2019-05-20T13:09:15.080Z,43.54
2019-05-20T13:11:43.263Z,43.85
2019-05-20T13:14:11.619Z,43.58
2019-05-20T13:16:39.859Z,42.16
2019-05-20T13:19:08.022Z,43.33
2019-05-20T13:21:36.182Z,42.76
2019-05-20T13:24:05.573Z,42.34
2019-05-20T13:26:34.919Z,42.86
2019-05-20T13:29:03.676Z,42.99
2019-05-20T13:31:32.187Z,43.24
2019-05-20T13:34:00.671Z,42.99
2019-05-20T13:36:29.581Z,43.06
2019-05-20T13:38:57.988Z,42.74
2019-05-20T13:41:26.277Z,42.41
2019-05-20T13:43:54.403Z,42.41
2019-05-20T13:46:22.569Z,41.87
2019-05-20T13:48:50.837Z,42.12
2019-05-20T13:51:19.513Z,42.99
2019-05-20T13:53:47.666Z,42.53
2019-05-20T13:56:16.029Z,40.88
2019-05-20T13:58:44.263Z,40.82
2019-05-20T14:01:13.330Z,41.22
2019-05-20T14:03:42.013Z,41.12
2019-05-20T14:06:11.014Z,41.00
2019-05-20T14:08:39.355Z,41.25
2019-05-20T14:11:07.865Z,41.37
2019-05-20T14:13:36.377Z,40.63
2019-05-20T14:16:04.675Z,40.24
2019-05-20T14:18:32.846Z,40.99
2019-05-20T14:21:01.350Z,40.11
2019-05-20T14:23:29.471Z,39.64
2019-05-20T14:25:57.686Z,39.85
2019-05-20T14:28:26.317Z,40.18
2019-05-20T14:30:54.479Z,40.25
2019-05-20T14:33:22.735Z,40.30
2019-05-20T14:35:51.006Z,40.23
2019-05-20T14:38:19.264Z,39.65
2019-05-20T14:40:47.864Z,39.74
2019-05-20T14:43:16.705Z,40.06
2019-05-20T14:45:45.073Z,39.75
2019-05-20T14:48:14.690Z,39.47
2019-05-20T14:50:43.392Z,39.20
2019-05-20T14:53:11.944Z,37.97
2019-05-20T14:55:42.611Z,37.41
2019-05-20T14:58:11.161Z,38.23
2019-05-20T15:00:39.765Z,37.89
2019-05-20T15:03:08.057Z,37.11
2019-05-20T15:05:36.818Z,37.96
2019-05-20T15:08:05.111Z,38.27
2019-05-20T15:10:33.872Z,38.64
2019-05-20T15:13:02.082Z,39.56
2019-05-20T15:15:30.800Z,39.08
2019-05-20T15:17:59.466Z,37.96
2019-05-20T15:20:27.628Z,38.18
2019-05-20T15:22:55.766Z,38.18
2019-05-20T15:25:24.325Z,37.76
2019-05-20T15:27:52.651Z,38.30
2019-05-20T15:30:20.931Z,39.19
2019-05-20T15:32:49.134Z,39.43
2019-05-20T15:35:17.550Z,39.27
2019-05-20T15:37:46.039Z,38.69
2019-05-20T15:40:14.469Z,38.80
2019-05-20T15:42:42.720Z,39.47
2019-05-20T15:45:11.876Z,39.37
2019-05-20T15:47:40.063Z,39.68
2019-05-20T15:50:10.401Z,39.12
2019-05-20T15:52:39.110Z,39.60
2019-05-20T15:55:07.840Z,38.57
2019-05-20T15:57:35.943Z,37.74
2019-05-20T16:00:05.515Z,37.99
2019-05-20T16:02:33.667Z,37.94
2019-05-20T16:05:01.917Z,38.49
2019-05-20T16:07:30.035Z,38.30
2019-05-20T16:09:58.477Z,39.33
2019-05-20T16:12:27.190Z,39.85
2019-05-20T16:14:57.395Z,39.95
2019-05-20T16:17:27.452Z,40.52
2019-05-20T16:19:55.568Z,41.57
2019-05-20T16:22:23.837Z,41.27
2019-05-20T16:24:52.200Z,40.84
2019-05-20T16:27:22.638Z,40.72
2019-05-20T16:30:05.604Z,40.17
2019-05-20T16:32:21.668Z,40.76
2019-05-20T16:34:50.180Z,40.92
2019-05-20T16:37:18.481Z,42.01
2019-05-20T16:39:46.710Z,42.13
2019-05-20T16:42:15.125Z,42.16
2019-05-20T16:44:47.458Z,42.50
2019-05-20T16:47:15.619Z,42.76
2019-05-20T16:49:43.771Z,42.69
2019-05-20T16:52:13.047Z,42.82
2019-05-20T16:54:41.574Z,42.44
2019-05-20T16:57:10.645Z,42.61
2019-05-20T16:59:40.224Z,42.71
2019-05-20T17:02:08.842Z,42.66
2019-05-20T17:04:36.993Z,41.98
2019-05-20T17:07:05.774Z,42.13
2019-05-20T17:09:33.904Z,42.26
2019-05-20T17:12:02.295Z,42.77
2019-05-20T17:14:30.514Z,43.56
2019-05-20T17:16:58.727Z,43.84
2019-05-20T17:19:27.511Z,43.95
2019-05-20T17:21:56.145Z,43.93
2019-05-20T17:24:24.591Z,43.91
2019-05-20T17:26:53.048Z,44.38
2019-05-20T17:29:21.187Z,44.33
2019-05-20T17:31:49.607Z,44.31
2019-05-20T17:34:17.792Z,44.81
2019-05-20T17:36:46.710Z,45.34
2019-05-20T17:39:16.194Z,45.69
2019-05-20T17:41:45.109Z,46.05
2019-05-20T17:44:13.298Z,46.55
2019-05-20T17:46:41.461Z,46.88
2019-05-20T17:49:10.151Z,47.11
2019-05-20T17:51:38.818Z,47.31
2019-05-20T17:54:07.301Z,47.54
2019-05-20T17:56:35.857Z,48.00
2019-05-20T17:59:04.189Z,48.05
2019-05-20T18:01:32.868Z,48.44
2019-05-20T18:04:01.010Z,48.78
2019-05-20T18:06:29.169Z,48.83
2019-05-20T18:09:00.390Z,49.07
2019-05-20T18:11:28.692Z,49.31
2019-05-20T18:13:56.812Z,49.04
2019-05-20T18:16:26.212Z,49.27
2019-05-20T18:18:54.453Z,49.50
2019-05-20T18:21:22.962Z,49.47
2019-05-20T18:23:51.801Z,49.12
2019-05-20T18:26:19.979Z,48.69
2019-05-20T18:28:48.334Z,48.67
2019-05-20T18:31:31.294Z,48.73
2019-05-20T18:33:47.094Z,48.75
2019-05-20T18:36:15.362Z,49.08
2019-05-20T18:38:43.802Z,49.12
2019-05-20T18:41:12.336Z,49.20
2019-05-20T18:43:40.995Z,49.58
2019-05-20T18:46:09.787Z,49.88
2019-05-20T18:48:37.907Z,50.31
2019-05-20T18:51:06.464Z,50.67
2019-05-20T18:53:34.601Z,50.88
2019-05-20T18:56:02.861Z,51.02
2019-05-20T18:58:31.447Z,51.31
2019-05-20T19:01:00.396Z,53.77
2019-05-20T19:03:29.055Z,57.86
2019-05-20T19:05:58.088Z,60.02
2019-05-20T19:08:26.482Z,61.12
2019-05-20T19:10:55.396Z,61.94
2019-05-20T19:13:23.584Z,62.25
2019-05-20T19:15:52.108Z,62.66
2019-05-20T19:18:22.077Z,62.67
2019-05-20T19:20:50.468Z,63.31
2019-05-20T19:23:18.906Z,63.75
2019-05-20T19:25:47.576Z,63.99
2019-05-20T19:28:15.741Z,64.48
2019-05-20T19:30:44.097Z,64.87
2019-05-20T19:33:14.180Z,65.28
2019-05-20T19:35:43.981Z,65.53
2019-05-20T19:38:12.487Z,65.66
2019-05-20T19:40:40.604Z,65.83
2019-05-20T19:43:08.780Z,66.41
2019-05-20T19:45:38.544Z,66.25
2019-05-20T19:48:07.389Z,66.57
2019-05-20T19:50:36.209Z,66.66
2019-05-20T19:53:04.576Z,66.70
2019-05-20T19:55:33.843Z,66.90
2019-05-20T19:58:02.007Z,67.10
2019-05-20T20:00:30.561Z,67.30
2019-05-20T20:02:58.911Z,67.44
2019-05-20T20:05:27.601Z,67.76
2019-05-20T20:07:56.871Z,68.08
2019-05-20T20:10:25.292Z,68.83
2019-05-20T20:12:53.823Z,68.91
2019-05-20T20:15:22.055Z,68.90
2019-05-20T20:17:50.220Z,69.93
2019-05-20T20:20:19.060Z,71.12
2019-05-20T20:22:47.427Z,71.08
2019-05-20T20:25:15.906Z,71.09
2019-05-20T20:27:44.402Z,70.79
2019-05-20T20:30:13.329Z,71.09
2019-05-20T20:32:41.814Z,71.79
2019-05-20T20:35:10.767Z,71.75
2019-05-20T20:37:39.495Z,71.87
2019-05-20T20:40:08.307Z,71.68
2019-05-20T20:42:36.464Z,71.97
2019-05-20T20:45:09.931Z,72.40
2019-05-20T20:47:41.919Z,73.06
2019-05-20T20:50:09.471Z,73.25
2019-05-20T20:52:39.163Z,72.96
2019-05-20T20:55:07.485Z,73.19
2019-05-20T20:57:35.644Z,73.43
2019-05-20T21:00:05.148Z,73.32
2019-05-20T21:02:33.366Z,72.85
2019-05-20T21:05:02.439Z,73.67
2019-05-20T21:07:30.688Z,73.92
2019-05-20T21:09:58.812Z,74.57
2019-05-20T21:12:27.385Z,74.70
2019-05-20T21:14:55.702Z,74.82
2019-05-20T21:17:23.956Z,74.75
2019-05-20T21:19:52.443Z,75.22
2019-05-20T21:22:20.795Z,75.29
2019-05-20T21:24:49.410Z,75.37
2019-05-20T21:27:18.110Z,75.29
2019-05-20T21:29:46.227Z,75.30
2019-05-20T21:32:15.135Z,75.56
2019-05-20T21:34:43.259Z,75.61
2019-05-20T21:37:11.781Z,75.59
2019-05-20T21:39:40.043Z,75.82
2019-05-20T21:42:08.199Z,76.48
2019-05-20T21:44:36.463Z,76.24
2019-05-20T21:47:04.733Z,76.09
2019-05-20T21:49:33.135Z,76.10
2019-05-20T21:52:01.279Z,76.54
2019-05-20T21:54:30.503Z,75.90
2019-05-20T21:56:58.612Z,76.19
2019-05-20T21:59:27.153Z,76.61
2019-05-20T22:01:55.601Z,76.95
2019-05-20T22:04:23.875Z,76.72
2019-05-20T22:06:51.994Z,76.85
2019-05-20T22:09:20.999Z,76.53
2019-05-20T22:11:49.575Z,76.57
2019-05-20T22:14:18.501Z,76.78
2019-05-20T22:16:46.988Z,76.61
2019-05-20T22:19:15.527Z,76.86
2019-05-20T22:21:50.922Z,76.63
2019-05-20T22:24:19.354Z,76.86
2019-05-20T22:26:47.783Z,76.68
2019-05-20T22:29:16.412Z,76.71
2019-05-20T22:31:45.816Z,76.71
2019-05-20T22:34:14.396Z,77.13
2019-05-20T22:36:42.686Z,76.92
2019-05-20T22:39:11.261Z,76.58
2019-05-20T22:41:39.416Z,76.22
2019-05-20T22:44:07.649Z,75.74
2019-05-20T22:46:36.283Z,76.22
2019-05-20T22:49:04.506Z,76.32
2019-05-20T22:51:33.158Z,76.28
2019-05-20T22:54:01.483Z,76.17
2019-05-20T22:56:29.789Z,76.14
2019-05-20T22:58:58.310Z,76.38
2019-05-20T23:01:26.498Z,76.37
2019-05-20T23:03:56.617Z,76.21
2019-05-20T23:06:25.159Z,76.95
2019-05-20T23:08:53.614Z,76.89
2019-05-20T23:11:22.139Z,76.98
2019-05-20T23:13:50.432Z,76.84
2019-05-20T23:16:19.300Z,76.72
2019-05-20T23:18:47.922Z,76.40
2019-05-20T23:21:16.376Z,76.74
2019-05-20T23:23:45.143Z,77.42
2019-05-20T23:26:13.975Z,76.98
2019-05-20T23:28:42.209Z,76.80
2019-05-20T23:31:10.477Z,77.01
2019-05-20T23:33:38.705Z,77.18
2019-05-20T23:36:07.216Z,77.09
2019-05-20T23:38:35.540Z,76.98
2019-05-20T23:41:04.245Z,76.55
2019-05-20T23:43:32.785Z,76.93
2019-05-20T23:46:01.239Z,77.04
2019-05-20T23:48:31.589Z,77.14
2019-05-20T23:51:00.065Z,77.33
2019-05-20T23:53:28.242Z,77.74
2019-05-20T23:55:56.664Z,77.43
2019-05-20T23:58:25.194Z,77.76
